Terminal Aerodrome Forecast
Issued by NWS

Home | Current Version | Previous Version | Text Only | Print | Product List | Glossary On
Versions: 1 2 3 4 5 6 7 8 9 10 11 12 13 14 15 16 17 18 19 20 21 22 23 24 25 26 27 28 29 30 31 32 33
654
FTUS43 KDTX 091138
TAFYIP
TAF
KYIP 091138Z 0912/1012 26010KT 1SM -SN BR OVC007
     FM091300 28013KT 3SM -SHSN OVC015
     FM091500 30013G20KT 6SM -SHSN OVC025
     FM091900 30013G20KT P6SM BKN035 PROB30 0921/1001 3SM -SN OVC025
     FM100100 26013KT P6SM BKN035
     FM101000 26013KT 6SM -SHSN OVC025=

USA.gov is the U.S. government's official web portal to all federal, state and local government web resources and services.